createdAt,value
2022-10-30T00:01:04.181Z,20.65
2022-10-30T00:03:30.541Z,13.63
2022-10-30T00:05:56.855Z,13.30
2022-10-30T00:08:23.682Z,12.90
2022-10-30T00:10:49.985Z,16.27
2022-10-30T00:13:17.593Z,16.58
2022-10-30T00:15:54.033Z,15.30
2022-10-30T00:18:20.700Z,13.93
2022-10-30T00:20:47.856Z,17.88
2022-10-30T00:23:14.474Z,23.67
2022-10-30T00:25:40.796Z,13.80
2022-10-30T00:28:07.598Z,15.10
2022-10-30T00:30:34.628Z,14.65
2022-10-30T00:33:01.415Z,14.75
2022-10-30T00:35:28.062Z,20.52
2022-10-30T00:37:54.593Z,18.20
2022-10-30T00:40:21.850Z,14.63
2022-10-30T00:42:48.245Z,11.95
2022-10-30T00:45:17.470Z,16.63
2022-10-30T00:47:51.680Z,13.80
2022-10-30T00:50:36.804Z,14.15
2022-10-30T00:53:14.446Z,11.77
2022-10-30T00:55:47.760Z,18.80
2022-10-30T00:58:19.452Z,14.27
2022-10-30T01:00:50.736Z,13.73
2022-10-30T01:03:19.046Z,18.75
2022-10-30T01:05:50.009Z,13.40
2022-10-30T01:08:16.442Z,17.13
2022-10-30T01:10:43.601Z,17.23
2022-10-30T01:13:10.851Z,12.07
2022-10-30T01:15:46.836Z,12.10
2022-10-30T01:18:46.298Z,16.30
2022-10-30T01:21:33.654Z,16.52
2022-10-30T01:24:11.549Z,17.98
2022-10-30T01:27:18.970Z,15.82
2022-10-30T01:29:50.749Z,12.82
2022-10-30T01:32:23.256Z,18.95
2022-10-30T01:35:08.232Z,14.45
2022-10-30T01:37:43.941Z,16.02
2022-10-30T01:40:13.368Z,13.30
2022-10-30T01:42:54.558Z,13.05
2022-10-30T01:45:51.813Z,12.48
2022-10-30T01:48:42.893Z,15.88
2022-10-30T01:51:50.118Z,15.02
2022-10-30T01:54:36.793Z,15.27
2022-10-30T01:57:21.472Z,17.77
2022-10-30T01:59:59.871Z,13.45
2022-10-30T02:02:26.428Z,13.35
2022-10-30T02:04:53.183Z,13.00
2022-10-30T02:07:19.538Z,14.50
2022-10-30T02:09:45.939Z,16.15
2022-10-30T02:12:13.765Z,13.18
2022-10-30T02:14:45.014Z,18.80
2022-10-30T02:17:12.136Z,14.57
2022-10-30T02:19:38.509Z,14.25
2022-10-30T02:22:05.454Z,14.02
2022-10-30T02:24:32.291Z,16.63
2022-10-30T02:26:58.794Z,15.90
2022-10-30T02:29:25.091Z,18.48
2022-10-30T02:31:51.487Z,15.43
2022-10-30T02:34:17.799Z,18.92
2022-10-30T02:36:44.198Z,14.23
2022-10-30T02:39:10.682Z,18.02
2022-10-30T02:41:37.549Z,18.88
2022-10-30T02:44:05.605Z,13.70
2022-10-30T02:46:32.501Z,14.55
2022-10-30T02:48:58.854Z,14.07
2022-10-30T02:51:25.241Z,15.98
2022-10-30T02:53:51.552Z,15.82
2022-10-30T02:56:17.882Z,17.90
2022-10-30T02:58:44.184Z,13.05
2022-10-30T03:01:16.005Z,13.38
2022-10-30T03:03:43.293Z,21.35
2022-10-30T03:06:11.703Z,16.55
2022-10-30T03:08:38.049Z,13.90
2022-10-30T03:11:08.022Z,14.18
2022-10-30T03:13:35.744Z,16.05
2022-10-30T03:16:04.223Z,14.35
2022-10-30T03:18:30.598Z,15.93
2022-10-30T03:21:02.101Z,13.90
2022-10-30T03:23:29.062Z,15.40
2022-10-30T03:25:57.232Z,13.18
2022-10-30T03:28:26.094Z,13.55
2022-10-30T03:30:58.469Z,15.65
2022-10-30T03:33:24.944Z,20.13
2022-10-30T03:35:51.614Z,13.07
2022-10-30T03:38:17.955Z,17.42
2022-10-30T03:40:44.258Z,14.52
2022-10-30T03:43:10.598Z,19.02
2022-10-30T03:45:36.899Z,13.23
2022-10-30T03:48:05.256Z,17.42
2022-10-30T03:50:32.554Z,15.13
2022-10-30T03:52:58.937Z,14.80
2022-10-30T03:55:25.839Z,14.93
2022-10-30T03:57:52.163Z,19.42
2022-10-30T04:00:18.957Z,16.20
2022-10-30T04:02:49.907Z,13.63
2022-10-30T04:05:18.812Z,15.48
2022-10-30T04:07:45.547Z,14.52
2022-10-30T04:10:13.118Z,14.10
2022-10-30T04:12:39.475Z,16.05
2022-10-30T04:15:07.602Z,20.58
2022-10-30T04:17:34.662Z,14.32
2022-10-30T04:20:01.002Z,12.55
2022-10-30T04:22:27.795Z,16.55
2022-10-30T04:24:54.116Z,15.48
2022-10-30T04:27:20.627Z,16.08
2022-10-30T04:29:47.151Z,22.23
2022-10-30T04:32:13.965Z,11.68
2022-10-30T04:34:40.298Z,15.15
2022-10-30T04:37:07.016Z,15.07
2022-10-30T04:39:33.502Z,11.30
2022-10-30T04:41:59.831Z,14.40
2022-10-30T04:44:26.130Z,14.98
2022-10-30T04:46:52.435Z,17.38
2022-10-30T04:49:18.738Z,15.43
2022-10-30T04:51:45.055Z,18.25
2022-10-30T04:54:11.354Z,16.63
2022-10-30T04:56:37.686Z,18.58
2022-10-30T04:59:04.052Z,18.27
2022-10-30T05:01:30.429Z,15.63
2022-10-30T05:03:56.778Z,16.17
2022-10-30T05:06:26.503Z,14.18
2022-10-30T05:08:52.987Z,16.20
2022-10-30T05:11:19.524Z,16.48
2022-10-30T05:13:45.821Z,13.90
2022-10-30T05:16:12.136Z,19.75
2022-10-30T05:18:38.432Z,16.83
2022-10-30T05:21:04.968Z,17.35
2022-10-30T05:23:31.316Z,15.75
2022-10-30T05:26:00.078Z,18.05
2022-10-30T05:28:26.401Z,16.42
2022-10-30T05:30:53.489Z,21.25
2022-10-30T05:33:19.934Z,19.95
2022-10-30T05:35:46.386Z,21.50
2022-10-30T05:38:13.304Z,18.27
2022-10-30T05:40:39.725Z,18.45
2022-10-30T05:43:06.426Z,17.17
2022-10-30T05:45:32.799Z,20.20
2022-10-30T05:48:01.824Z,22.10
2022-10-30T05:50:29.133Z,17.67
2022-10-30T05:52:56.674Z,17.98
2022-10-30T05:55:23.315Z,19.80
2022-10-30T05:57:49.618Z,19.15
2022-10-30T06:00:16.286Z,16.95
2022-10-30T06:02:42.672Z,15.90
2022-10-30T06:05:09.070Z,18.58
2022-10-30T06:07:35.349Z,15.68
2022-10-30T06:10:01.637Z,18.30
2022-10-30T06:12:27.943Z,21.58
2022-10-30T06:14:54.234Z,23.38
2022-10-30T06:17:20.549Z,16.92
2022-10-30T06:19:46.871Z,17.95
2022-10-30T06:22:13.193Z,18.45
2022-10-30T06:24:39.509Z,20.52
2022-10-30T06:27:05.892Z,21.88
2022-10-30T06:29:32.186Z,18.85
2022-10-30T06:32:00.831Z,23.63
2022-10-30T06:34:30.210Z,17.73
2022-10-30T06:36:56.571Z,18.83
2022-10-30T06:39:22.937Z,20.05
2022-10-30T06:41:49.253Z,16.10
2022-10-30T06:44:15.557Z,21.75
2022-10-30T06:46:41.910Z,18.48
2022-10-30T06:49:08.268Z,15.27
2022-10-30T06:51:34.621Z,18.52
2022-10-30T06:54:00.929Z,18.98
2022-10-30T06:56:27.242Z,20.13
2022-10-30T06:58:53.575Z,18.15
2022-10-30T07:01:22.731Z,19.42
2022-10-30T07:03:49.079Z,17.33
2022-10-30T07:06:15.420Z,19.52
2022-10-30T07:08:41.799Z,17.83
2022-10-30T07:11:08.107Z,18.73
2022-10-30T07:13:35.417Z,20.33
2022-10-30T07:16:01.734Z,25.08
2022-10-30T07:18:28.047Z,21.27
2022-10-30T07:20:55.566Z,19.77
2022-10-30T07:23:22.119Z,22.33
2022-10-30T07:25:48.435Z,20.10
2022-10-30T07:28:14.866Z,13.75
2022-10-30T07:30:41.181Z,18.05
2022-10-30T07:33:09.172Z,22.55
2022-10-30T07:35:36.405Z,26.88
2022-10-30T07:38:04.776Z,16.40
2022-10-30T07:40:31.954Z,16.00
2022-10-30T07:43:00.630Z,18.92
2022-10-30T07:45:27.681Z,15.40
2022-10-30T07:47:54.643Z,18.40
2022-10-30T07:50:21.194Z,15.50
2022-10-30T07:52:47.751Z,17.60
2022-10-30T07:55:14.396Z,13.90
2022-10-30T07:57:42.337Z,14.98
2022-10-30T08:00:11.544Z,13.45
2022-10-30T08:02:38.105Z,15.57
2022-10-30T08:05:05.660Z,15.25
2022-10-30T08:07:33.965Z,16.02
2022-10-30T08:10:00.352Z,13.55
2022-10-30T08:12:27.288Z,13.90
2022-10-30T08:14:53.861Z,12.18
2022-10-30T08:17:21.185Z,12.48
2022-10-30T08:19:47.606Z,18.45
2022-10-30T08:22:13.969Z,15.88
2022-10-30T08:24:40.301Z,15.45
2022-10-30T08:27:06.785Z,15.52
2022-10-30T08:29:33.207Z,16.30
2022-10-30T08:31:59.488Z,14.77
2022-10-30T08:34:25.918Z,17.45
2022-10-30T08:36:52.477Z,16.85
2022-10-30T08:39:19.160Z,16.30
2022-10-30T08:41:45.997Z,15.10
2022-10-30T08:44:12.664Z,13.05
2022-10-30T08:46:38.973Z,11.27
2022-10-30T08:49:05.456Z,14.00
2022-10-30T08:51:33.420Z,16.08
2022-10-30T08:54:00.220Z,12.60
2022-10-30T08:56:26.989Z,11.90
2022-10-30T08:58:53.423Z,11.30
2022-10-30T09:01:19.859Z,13.82
2022-10-30T09:03:46.235Z,14.00
2022-10-30T09:06:12.553Z,12.75
2022-10-30T09:08:38.901Z,18.10
2022-10-30T09:11:05.518Z,13.15
2022-10-30T09:13:31.834Z,12.82
2022-10-30T09:16:01.284Z,11.98
2022-10-30T09:18:28.309Z,15.18
2022-10-30T09:20:54.653Z,17.20
2022-10-30T09:23:21.065Z,19.75
2022-10-30T09:25:47.408Z,13.30
2022-10-30T09:28:13.768Z,9.80
2022-10-30T09:30:40.073Z,19.08
2022-10-30T09:33:06.404Z,15.73
2022-10-30T09:35:32.745Z,11.70
2022-10-30T09:37:59.339Z,15.93
2022-10-30T09:40:44.258Z,14.13
2022-10-30T09:43:48.311Z,16.80
2022-10-30T09:46:23.419Z,13.85
2022-10-30T09:49:04.879Z,11.38
2022-10-30T09:51:43.383Z,12.60
2022-10-30T09:54:22.026Z,13.48
2022-10-30T09:56:59.528Z,17.23
2022-10-30T09:59:38.657Z,10.48
2022-10-30T10:02:11.066Z,18.05
2022-10-30T10:04:44.570Z,11.57
2022-10-30T10:07:21.430Z,16.40
2022-10-30T10:09:52.455Z,14.85
2022-10-30T10:12:43.668Z,10.50
2022-10-30T10:15:24.950Z,10.05
2022-10-30T10:17:51.798Z,12.35
2022-10-30T10:20:32.059Z,18.10
2022-10-30T10:23:02.235Z,11.25
2022-10-30T10:25:30.951Z,18.67
2022-10-30T10:28:36.808Z,16.73
2022-10-30T10:31:12.320Z,15.98
2022-10-30T10:33:57.827Z,11.65
2022-10-30T10:36:35.087Z,10.07
2022-10-30T10:39:30.256Z,14.07
2022-10-30T10:42:12.092Z,14.10
2022-10-30T10:44:46.493Z,18.00
2022-10-30T10:47:12.757Z,11.50
2022-10-30T10:49:52.868Z,17.17
2022-10-30T10:52:24.032Z,12.80
2022-10-30T10:55:00.845Z,19.17
2022-10-30T10:57:36.534Z,13.98
2022-10-30T11:00:20.707Z,12.95
2022-10-30T11:03:13.608Z,15.07
2022-10-30T11:05:51.494Z,16.23
2022-10-30T11:08:33.111Z,12.50
2022-10-30T11:11:02.074Z,16.73
2022-10-30T11:13:35.876Z,13.27
2022-10-30T11:16:05.098Z,10.10
2022-10-30T11:18:32.034Z,13.23
2022-10-30T11:21:23.721Z,13.68
2022-10-30T11:23:50.826Z,15.50
2022-10-30T11:26:17.087Z,17.55
2022-10-30T11:29:12.185Z,15.88
2022-10-30T11:31:41.193Z,16.92
2022-10-30T11:34:19.409Z,9.27
2022-10-30T11:36:51.088Z,15.93
2022-10-30T11:39:18.426Z,9.93
2022-10-30T11:41:56.749Z,11.85
2022-10-30T11:44:28.805Z,13.10
2022-10-30T11:46:55.952Z,20.88
2022-10-30T11:49:33.405Z,14.48
2022-10-30T11:52:00.428Z,15.77
2022-10-30T11:54:27.232Z,15.38
2022-10-30T11:56:54.572Z,12.70
2022-10-30T11:59:23.818Z,21.95
2022-10-30T12:02:21.659Z,18.45
2022-10-30T12:04:50.254Z,16.33
2022-10-30T12:07:24.312Z,12.63
2022-10-30T12:09:51.009Z,16.08
2022-10-30T12:12:22.114Z,13.55
2022-10-30T12:14:48.562Z,15.65
2022-10-30T12:17:17.737Z,14.50
2022-10-30T12:19:50.410Z,17.08
2022-10-30T12:22:32.628Z,14.25
2022-10-30T12:25:02.801Z,13.52
2022-10-30T12:27:32.143Z,12.23
2022-10-30T12:30:10.015Z,14.00
2022-10-30T12:32:50.239Z,11.50
2022-10-30T12:35:37.180Z,13.38
2022-10-30T12:38:09.606Z,11.57
2022-10-30T12:40:42.697Z,13.35
2022-10-30T12:43:26.094Z,9.80
2022-10-30T12:46:01.453Z,14.65
2022-10-30T12:48:41.662Z,11.82
2022-10-30T12:51:24.245Z,11.23
2022-10-30T12:54:14.945Z,15.68
2022-10-30T12:56:45.880Z,10.63
2022-10-30T12:59:32.978Z,9.25
2022-10-30T13:02:23.945Z,15.93
2022-10-30T13:04:57.255Z,18.38
2022-10-30T13:07:27.994Z,11.35
2022-10-30T13:10:18.769Z,19.33
2022-10-30T13:12:48.538Z,10.80
2022-10-30T13:15:22.329Z,14.10
2022-10-30T13:17:49.601Z,17.97
2022-10-30T13:20:16.374Z,16.48
2022-10-30T13:22:49.029Z,13.95
2022-10-30T13:25:24.992Z,14.15
2022-10-30T13:28:01.788Z,13.88
2022-10-30T13:30:38.982Z,12.38
2022-10-30T13:33:22.508Z,17.30
2022-10-30T13:36:03.040Z,14.85
2022-10-30T13:38:42.231Z,17.83
2022-10-30T13:41:37.881Z,13.65
2022-10-30T13:44:22.158Z,11.80
2022-10-30T13:46:58.572Z,10.43
2022-10-30T13:50:00.126Z,13.15
2022-10-30T13:52:29.655Z,10.50
2022-10-30T13:55:14.307Z,15.25
2022-10-30T13:57:52.562Z,11.65
2022-10-30T14:00:22.014Z,12.57
2022-10-30T14:03:25.918Z,13.93
2022-10-30T14:05:58.123Z,11.07
2022-10-30T14:08:40.401Z,12.27
2022-10-30T14:11:10.778Z,11.65
2022-10-30T14:13:57.114Z,14.23
2022-10-30T14:16:39.945Z,13.13
2022-10-30T14:19:11.294Z,16.05
2022-10-30T14:21:42.990Z,10.48
2022-10-30T14:24:14.237Z,10.43
2022-10-30T14:26:49.993Z,11.95
2022-10-30T14:29:34.107Z,12.45
2022-10-30T14:32:12.968Z,13.23
2022-10-30T14:34:57.081Z,16.63
2022-10-30T14:37:23.351Z,18.77
2022-10-30T14:39:51.534Z,13.55
2022-10-30T14:42:40.904Z,15.48
2022-10-30T14:45:28.154Z,11.05
2022-10-30T14:47:56.703Z,8.75
2022-10-30T14:50:49.035Z,12.65
2022-10-30T14:53:46.014Z,14.93
2022-10-30T14:59:12.258Z,14.15
2022-10-30T15:01:44.881Z,17.67
2022-10-30T15:04:26.268Z,17.23
2022-10-30T15:07:11.450Z,15.48
2022-10-30T15:12:24.270Z,12.70
2022-10-30T15:15:00.007Z,12.20
2022-10-30T15:17:33.957Z,12.30
2022-10-30T15:20:04.686Z,11.02
2022-10-30T15:22:33.361Z,13.95
2022-10-30T15:25:01.674Z,13.48
2022-10-30T15:27:29.558Z,13.75
2022-10-30T15:30:00.577Z,10.80
2022-10-30T15:32:27.214Z,18.65
2022-10-30T15:35:01.705Z,10.95
2022-10-30T15:37:28.736Z,14.43
2022-10-30T15:40:16.879Z,16.48
2022-10-30T15:42:43.961Z,12.95
2022-10-30T15:45:18.132Z,14.57
2022-10-30T15:48:06.688Z,13.43
2022-10-30T15:50:39.588Z,13.05
2022-10-30T15:53:06.794Z,12.05
2022-10-30T15:55:33.473Z,13.88
2022-10-30T15:58:13.286Z,16.27
2022-10-30T16:00:39.864Z,17.98
2022-10-30T16:03:16.334Z,15.23
2022-10-30T16:05:42.835Z,14.88
2022-10-30T16:08:15.888Z,12.23
2022-10-30T16:10:45.266Z,16.08
2022-10-30T16:13:21.761Z,13.55
2022-10-30T16:15:48.493Z,14.77
2022-10-30T16:18:28.520Z,12.77
2022-10-30T16:20:58.159Z,16.90
2022-10-30T16:23:24.577Z,14.50
2022-10-30T16:25:55.837Z,12.32
2022-10-30T16:28:28.210Z,15.20
2022-10-30T16:30:58.714Z,12.57
2022-10-30T16:33:28.023Z,14.20
2022-10-30T16:35:55.943Z,16.48
2022-10-30T16:38:24.546Z,16.83
2022-10-30T16:40:51.469Z,14.05
2022-10-30T16:43:29.583Z,13.20
2022-10-30T16:46:24.513Z,12.63
2022-10-30T16:48:58.172Z,18.90
2022-10-30T16:51:24.650Z,14.48
2022-10-30T16:53:52.513Z,17.77
2022-10-30T16:56:29.147Z,13.85
2022-10-30T16:59:13.470Z,19.50
2022-10-30T17:01:40.120Z,12.57
2022-10-30T17:04:06.684Z,15.40
2022-10-30T17:06:43.016Z,14.45
2022-10-30T17:09:23.959Z,20.48
2022-10-30T17:12:09.306Z,19.75
2022-10-30T17:14:46.933Z,20.42
2022-10-30T17:17:42.476Z,22.48
2022-10-30T17:23:05.910Z,38.88
2022-10-30T17:25:37.678Z,31.83
2022-10-30T17:28:05.120Z,33.25
2022-10-30T17:30:34.339Z,25.55
2022-10-30T17:33:03.508Z,24.50
2022-10-30T17:35:30.190Z,20.20
2022-10-30T17:37:59.740Z,19.70
2022-10-30T17:40:29.262Z,20.63
2022-10-30T17:42:55.597Z,15.70
2022-10-30T17:45:22.282Z,18.83
2022-10-30T17:47:48.602Z,18.15
2022-10-30T17:50:14.984Z,18.30
2022-10-30T17:52:41.283Z,17.58
2022-10-30T17:55:22.397Z,17.60
2022-10-30T17:57:48.764Z,17.45
2022-10-30T18:00:15.295Z,19.27
2022-10-30T18:02:41.607Z,16.38
2022-10-30T18:05:17.994Z,14.77
2022-10-30T18:07:44.674Z,24.33
2022-10-30T18:10:12.018Z,18.30
2022-10-30T18:12:38.405Z,18.38
2022-10-30T18:15:27.505Z,19.48
2022-10-30T18:17:54.227Z,18.83
2022-10-30T18:20:21.289Z,25.33
2022-10-30T18:22:47.784Z,22.80
2022-10-30T18:25:22.184Z,22.10
2022-10-30T18:27:48.500Z,16.92
2022-10-30T18:30:16.136Z,24.27
2022-10-30T18:32:42.674Z,23.08
2022-10-30T18:35:13.764Z,20.77
2022-10-30T18:37:40.315Z,20.60
2022-10-30T18:40:07.182Z,22.10
2022-10-30T18:42:33.485Z,24.83
2022-10-30T18:44:59.809Z,23.38
2022-10-30T18:47:26.109Z,29.30
2022-10-30T18:49:52.540Z,24.35
2022-10-30T18:52:19.227Z,24.10
2022-10-30T18:54:45.571Z,21.17
2022-10-30T18:57:11.942Z,26.75
2022-10-30T18:59:38.278Z,26.35
2022-10-30T19:02:23.488Z,24.27
2022-10-30T19:07:16.135Z,23.83
2022-10-30T19:09:42.520Z,21.40
2022-10-30T19:12:10.443Z,29.02
2022-10-30T19:14:36.791Z,30.00
2022-10-30T19:17:03.144Z,25.45
2022-10-30T19:19:29.527Z,23.45
2022-10-30T19:21:55.876Z,23.25
2022-10-30T19:24:22.188Z,24.77
2022-10-30T19:26:48.589Z,24.27
2022-10-30T19:29:14.890Z,23.92
2022-10-30T19:31:41.196Z,27.17
2022-10-30T19:34:07.519Z,26.45
2022-10-30T19:36:36.811Z,28.17
2022-10-30T19:39:14.336Z,21.80
2022-10-30T19:41:40.721Z,28.25
2022-10-30T19:44:07.067Z,27.48
2022-10-30T19:46:33.660Z,31.38
2022-10-30T19:49:00.642Z,31.88
2022-10-30T19:51:28.504Z,28.23
2022-10-30T19:53:55.077Z,30.17
2022-10-30T19:56:21.727Z,22.10
2022-10-30T19:58:48.225Z,23.13
2022-10-30T20:01:14.777Z,25.77
2022-10-30T20:03:41.237Z,23.45
2022-10-30T20:06:10.372Z,23.95
2022-10-30T20:08:36.737Z,21.85
2022-10-30T20:11:03.077Z,21.80
2022-10-30T20:13:29.837Z,20.27
2022-10-30T20:15:58.964Z,26.05
2022-10-30T20:18:30.428Z,27.02
2022-10-30T20:21:00.584Z,26.38
2022-10-30T20:23:27.746Z,26.02
2022-10-30T20:26:02.915Z,34.88
2022-10-30T20:28:37.888Z,27.90
2022-10-30T20:31:05.435Z,31.92
2022-10-30T20:33:31.839Z,27.95
2022-10-30T20:35:58.208Z,27.67
2022-10-30T20:38:26.771Z,23.88
2022-10-30T20:40:53.786Z,16.58
2022-10-30T20:43:24.863Z,24.90
2022-10-30T20:45:51.278Z,23.70
2022-10-30T20:48:17.599Z,21.48
2022-10-30T20:50:49.137Z,24.40
2022-10-30T20:53:17.041Z,20.92
2022-10-30T20:55:43.604Z,20.40
2022-10-30T20:58:10.041Z,20.08
2022-10-30T21:00:36.450Z,18.20
2022-10-30T21:03:04.760Z,22.83
2022-10-30T21:05:43.790Z,20.75
2022-10-30T21:08:12.499Z,19.63
2022-10-30T21:10:39.814Z,19.38
2022-10-30T21:13:08.913Z,19.65
2022-10-30T21:15:41.130Z,22.85
2022-10-30T21:18:08.430Z,20.98
2022-10-30T21:20:35.889Z,20.92
2022-10-30T21:23:02.249Z,19.05
2022-10-30T21:25:28.691Z,18.75
2022-10-30T21:27:58.582Z,17.95
2022-10-30T21:30:25.112Z,21.15
2022-10-30T21:32:51.585Z,20.00
2022-10-30T21:35:18.296Z,23.20
2022-10-30T21:37:44.706Z,19.38
2022-10-30T21:40:11.781Z,22.30
2022-10-30T21:42:38.134Z,21.38
2022-10-30T21:45:05.437Z,18.80
2022-10-30T21:47:31.846Z,20.17
2022-10-30T21:49:58.268Z,17.33
2022-10-30T21:52:24.621Z,18.33
2022-10-30T21:54:50.999Z,18.77
2022-10-30T21:57:17.333Z,17.02
2022-10-30T21:59:43.674Z,16.25
2022-10-30T22:02:13.902Z,22.20
2022-10-30T22:04:40.319Z,20.02
2022-10-30T22:07:06.747Z,15.48
2022-10-30T22:09:33.089Z,17.58
2022-10-30T22:11:59.383Z,17.88
2022-10-30T22:14:25.769Z,21.10
2022-10-30T22:16:52.180Z,17.23
2022-10-30T22:19:18.578Z,14.75
2022-10-30T22:21:44.943Z,18.42
2022-10-30T22:24:11.313Z,16.48
2022-10-30T22:26:37.717Z,19.02
2022-10-30T22:29:04.047Z,19.23
2022-10-30T22:31:30.540Z,13.60
2022-10-30T22:33:59.400Z,22.05
2022-10-30T22:36:28.366Z,16.40
2022-10-30T22:39:10.670Z,19.75
2022-10-30T22:41:38.350Z,20.58
2022-10-30T22:44:07.105Z,14.55
2022-10-30T22:46:33.674Z,20.50
2022-10-30T22:49:00.184Z,20.02
2022-10-30T22:51:26.921Z,22.17
2022-10-30T22:53:58.479Z,20.15
2022-10-30T22:56:26.991Z,20.17
2022-10-30T22:58:53.659Z,21.17
2022-10-30T23:01:28.857Z,26.50
2022-10-30T23:03:56.955Z,18.20
2022-10-30T23:06:24.105Z,18.30
2022-10-30T23:08:55.439Z,18.15
2022-10-30T23:11:22.503Z,17.67
2022-10-30T23:13:49.523Z,21.45
2022-10-30T23:16:18.235Z,17.58
2022-10-30T23:18:45.573Z,17.58
2022-10-30T23:21:14.315Z,15.30
2022-10-30T23:23:42.333Z,26.15
2022-10-30T23:26:13.534Z,20.17
2022-10-30T23:28:39.964Z,23.67
2022-10-30T23:31:15.809Z,21.63
2022-10-30T23:33:42.138Z,19.65
2022-10-30T23:36:08.597Z,27.65
2022-10-30T23:38:34.906Z,26.50
2022-10-30T23:41:01.193Z,25.33
2022-10-30T23:43:27.517Z,25.50
2022-10-30T23:45:53.842Z,25.88
2022-10-30T23:48:20.177Z,29.25
2022-10-30T23:50:46.486Z,23.80
2022-10-30T23:53:12.793Z,26.15
2022-10-30T23:55:39.149Z,27.10
2022-10-30T23:58:05.561Z,36.53
